Time;durP1;ratioP1;P1;durP2;ratioP2;P2;SDS_P1;SDS_P2;PMS_P1;PMS_P2;Temp;Humidity;BMP_temperature;BMP_pressure;BME280_temperature;BME280_humidity;BME280_pressure;Samples;Min_cycle;Max_cycle;Signal;HPM_P1;HPM_P2
2022/06/30 00:02:26;;;;;;;7.60;6.90;;;;;;;17.47;100.00;96756.19;5054923;28;20286;-65
2022/06/30 00:04:54;;;;;;;7.90;7.17;;;;;;;17.35;100.00;96752.72;5055403;28;20218;-65
2022/06/30 00:07:22;;;;;;;8.07;7.27;;;;;;;17.41;100.00;96751.78;5055551;28;20221;-62
2022/06/30 00:09:52;;;;;;;7.90;7.30;;;;;;;17.20;100.00;96750.56;5058550;28;20203;-63
2022/06/30 00:12:20;;;;;;;7.70;7.00;;;;;;;17.15;100.00;96747.78;5056361;28;20199;-66
2022/06/30 00:14:48;;;;;;;8.43;7.60;;;;;;;17.13;100.00;96753.41;4978307;28;20293;-64
2022/06/30 00:17:16;;;;;;;7.37;6.67;;;;;;;17.14;100.00;96755.03;5054615;28;20276;-63
2022/06/30 00:19:46;;;;;;;7.63;7.03;;;;;;;17.06;100.00;96753.53;5056365;28;20234;-64
2022/06/30 00:22:14;;;;;;;7.07;6.57;;;;;;;16.99;100.00;96752.84;5056312;28;20290;-65
2022/06/30 00:24:43;;;;;;;8.43;7.60;;;;;;;16.93;100.00;96749.19;5057172;28;20292;-65
2022/06/30 00:27:12;;;;;;;8.23;7.63;;;;;;;16.88;100.00;96746.44;5057850;28;20576;-65
2022/06/30 00:29:40;;;;;;;7.73;7.10;;;;;;;16.83;100.00;96745.50;5057316;28;20308;-65
2022/06/30 00:32:09;;;;;;;8.30;6.43;;;;;;;16.83;100.00;96748.16;5057570;28;20235;-65
2022/06/30 00:34:37;;;;;;;8.27;7.57;;;;;;;16.80;100.00;96749.47;5055529;28;20243;-64
2022/06/30 00:37:06;;;;;;;7.33;6.83;;;;;;;16.73;100.00;96741.56;5056669;28;20388;-64
2022/06/30 00:39:34;;;;;;;7.70;7.10;;;;;;;16.70;100.00;96746.56;5056446;28;20219;-63
2022/06/30 00:42:03;;;;;;;8.40;7.70;;;;;;;16.81;100.00;96742.25;5055668;28;20227;-65
2022/06/30 00:44:32;;;;;;;8.17;7.20;;;;;;;16.70;100.00;96735.88;5056762;28;20238;-64
2022/06/30 00:47:01;;;;;;;7.93;7.33;;;;;;;16.81;100.00;96735.03;5054357;28;20719;-65
2022/06/30 00:49:29;;;;;;;8.57;7.77;;;;;;;16.84;100.00;96729.22;5055177;28;20649;-63
2022/06/30 00:51:57;;;;;;;8.93;7.53;;;;;;;16.74;100.00;96729.00;5054545;28;20199;-65
2022/06/30 00:54:26;;;;;;;9.10;8.30;;;;;;;16.66;100.00;96729.34;5053922;28;20211;-65
2022/06/30 00:56:54;;;;;;;6.87;6.37;;;;;;;16.65;100.00;96733.91;5055330;28;20959;-63
2022/06/30 00:59:23;;;;;;;7.80;7.17;;;;;;;16.59;100.00;96738.31;5056571;28;20222;-63
2022/06/30 01:01:53;;;;;;;8.67;7.83;;;;;;;16.61;100.00;96732.75;5053918;28;20249;-62
2022/06/30 01:04:21;;;;;;;7.63;7.13;;;;;;;16.51;100.00;96730.66;5055104;28;20195;-63
2022/06/30 01:06:50;;;;;;;7.93;7.23;;;;;;;16.51;100.00;96729.84;5055929;28;20654;-64
2022/06/30 01:14:45;;;;;;;8.60;7.87;;;;;;;16.52;100.00;96739.50;5054030;28;20293;-63
2022/06/30 01:17:15;;;;;;;8.97;8.10;;;;;;;16.43;100.00;96741.69;5055105;28;20284;-65
2022/06/30 01:19:52;;;;;;;8.87;7.90;;;;;;;16.37;100.00;96748.78;5055835;28;20203;-63
2022/06/30 01:22:21;;;;;;;8.83;8.13;;;;;;;16.28;100.00;96750.16;5053703;28;21237;-65
2022/06/30 01:24:50;;;;;;;10.30;9.00;;;;;;;16.24;100.00;96746.34;4984775;28;20542;-62
2022/06/30 01:27:18;;;;;;;9.27;8.57;;;;;;;16.16;100.00;96740.28;5054091;28;20659;-65
2022/06/30 01:29:47;;;;;;;10.27;9.30;;;;;;;16.14;100.00;96733.53;5053658;28;20219;-64
2022/06/30 01:33:07;;;;;;;9.20;8.50;;;;;;;16.31;100.00;96736.34;5046339;28;22116;-63
2022/06/30 01:35:35;;;;;;;9.47;8.67;;;;;;;16.06;100.00;96738.19;5049103;28;20211;-63
2022/06/30 01:38:05;;;;;;;9.43;8.63;;;;;;;16.10;100.00;96737.72;5049700;28;20203;-64
2022/06/30 01:40:35;;;;;;;9.27;8.50;;;;;;;16.01;100.00;96751.41;5049847;28;20211;-64
2022/06/30 01:43:05;;;;;;;9.93;9.20;;;;;;;16.01;100.00;96738.06;5051145;28;20211;-62
2022/06/30 01:45:33;;;;;;;9.27;8.57;;;;;;;16.20;100.00;96740.63;5046040;28;20238;-64
2022/06/30 01:48:01;;;;;;;9.20;8.27;;;;;;;16.15;100.00;96748.53;5051594;28;20207;-64
2022/06/30 01:50:32;;;;;;;9.47;8.77;;;;;;;15.95;100.00;96757.69;5051982;28;20760;-65
2022/06/30 01:53:02;;;;;;;9.80;9.00;;;;;;;15.90;100.00;96747.66;5050786;28;20194;-64
2022/06/30 01:55:32;;;;;;;9.03;8.13;;;;;;;15.85;100.00;96754.69;5049798;28;20417;-62
2022/06/30 01:58:00;;;;;;;11.80;9.40;;;;;;;15.91;100.00;96759.19;5050871;28;20267;-64
2022/06/30 02:00:29;;;;;;;10.07;9.23;;;;;;;16.01;100.00;96754.09;5046188;28;20239;-65
2022/06/30 02:02:58;;;;;;;10.70;9.73;;;;;;;15.87;100.00;96753.44;5053881;28;20304;-63
2022/06/30 02:05:26;;;;;;;10.10;9.20;;;;;;;15.76;100.00;96746.22;5054589;28;20747;-65
2022/06/30 02:07:55;;;;;;;10.70;9.80;;;;;;;15.90;100.00;96755.69;5052655;28;20241;-64
2022/06/30 02:10:24;;;;;;;10.87;9.97;;;;;;;15.98;100.00;96754.56;5053302;28;20320;-65
2022/06/30 02:12:53;;;;;;;11.03;9.97;;;;;;;16.12;100.00;96755.16;5049920;28;20209;-62
2022/06/30 02:15:24;;;;;;;10.67;9.77;;;;;;;15.93;100.00;96761.63;5053798;28;20240;-64
2022/06/30 02:17:53;;;;;;;9.53;8.63;;;;;;;15.77;100.00;96763.88;5052108;28;20497;-64
2022/06/30 02:20:23;;;;;;;10.27;9.37;;;;;;;15.69;100.00;96761.50;5048528;28;20712;-64
2022/06/30 02:22:54;;;;;;;11.03;10.13;;;;;;;15.66;100.00;96757.44;5056140;28;20198;-64
2022/06/30 02:25:23;;;;;;;10.63;9.63;;;;;;;15.60;100.00;96753.00;5056813;28;20234;-65
2022/06/30 02:27:51;;;;;;;10.87;9.97;;;;;;;15.74;100.00;96759.78;5053737;28;20211;-63
2022/06/30 02:30:20;;;;;;;10.57;9.67;;;;;;;15.65;100.00;96761.16;5048742;28;20691;-65
2022/06/30 02:32:49;;;;;;;10.27;9.47;;;;;;;15.65;100.00;96757.66;5051162;28;20280;-64
2022/06/30 02:35:17;;;;;;;10.07;9.13;;;;;;;15.62;100.00;96762.41;5007680;28;20639;-62
2022/06/30 02:37:45;;;;;;;9.60;8.80;;;;;;;15.60;100.00;96764.50;5046850;28;20221;-63
2022/06/30 02:40:14;;;;;;;10.00;9.10;;;;;;;15.55;100.00;96767.03;5052353;28;20214;-62
2022/06/30 02:42:42;;;;;;;10.30;9.50;;;;;;;15.53;100.00;96769.13;5049192;28;20210;-62
2022/06/30 02:45:11;;;;;;;10.43;9.43;;;;;;;15.53;100.00;96776.28;5050227;28;20227;-64
2022/06/30 02:47:41;;;;;;;10.47;9.37;;;;;;;15.42;100.00;96780.56;5054676;28;20258;-64
2022/06/30 02:50:11;;;;;;;12.93;9.83;;;;;;;15.41;100.00;96784.28;5054119;28;20231;-64
2022/06/30 02:52:39;;;;;;;10.53;9.53;;;;;;;15.42;100.00;96783.25;5052845;28;20199;-64
2022/06/30 02:55:08;;;;;;;10.83;9.80;;;;;;;15.48;100.00;96785.00;5046212;28;20221;-64
2022/06/30 02:57:37;;;;;;;10.37;9.43;;;;;;;15.47;100.00;96780.69;5051155;28;20593;-64
2022/06/30 03:00:07;;;;;;;10.23;9.33;;;;;;;15.47;100.00;96775.38;5050959;28;20276;-63
2022/06/30 03:02:35;;;;;;;10.43;9.40;;;;;;;15.54;100.00;96773.41;5047817;28;20476;-63
2022/06/30 03:05:05;;;;;;;10.10;9.23;;;;;;;15.54;100.00;96777.97;5054361;28;20601;-64
2022/06/30 03:07:33;;;;;;;10.70;9.80;;;;;;;15.51;100.00;96771.19;5051563;28;20341;-63
2022/06/30 03:10:01;;;;;;;11.90;10.87;;;;;;;15.49;100.00;96779.41;5056741;28;20318;-63
2022/06/30 03:12:29;;;;;;;9.67;8.97;;;;;;;15.62;100.00;96774.97;5057610;28;20289;-64
2022/06/30 03:14:57;;;;;;;11.07;10.17;;;;;;;15.66;100.00;96776.13;5053299;28;20667;-62
2022/06/30 03:17:25;;;;;;;10.90;9.80;;;;;;;15.56;100.00;96763.31;5053700;28;20427;-64
2022/06/30 03:19:53;;;;;;;11.40;10.30;;;;;;;15.49;100.00;96767.94;5058544;28;20235;-63
2022/06/30 03:22:23;;;;;;;11.63;10.53;;;;;;;15.63;100.00;96768.59;5055500;28;20246;-64
2022/06/30 03:24:51;;;;;;;11.10;10.30;;;;;;;15.71;100.00;96767.44;5055716;28;20301;-62
2022/06/30 03:27:19;;;;;;;10.93;9.93;;;;;;;15.51;100.00;96760.53;5055268;28;20715;-63
2022/06/30 03:29:47;;;;;;;12.23;11.03;;;;;;;15.47;100.00;96768.16;5055051;28;20482;-61
2022/06/30 03:32:15;;;;;;;11.23;10.13;;;;;;;15.43;100.00;96766.97;5054043;28;20227;-63
2022/06/30 03:34:43;;;;;;;10.47;9.47;;;;;;;15.39;100.00;96765.00;5052874;28;20294;-63
2022/06/30 03:37:11;;;;;;;11.57;10.57;;;;;;;15.38;100.00;96769.50;5058635;28;20249;-64
2022/06/30 03:39:40;;;;;;;11.63;10.53;;;;;;;15.36;100.00;96773.47;5055080;28;20298;-64
2022/06/30 03:42:09;;;;;;;11.80;10.70;;;;;;;15.37;100.00;96783.09;5056494;28;20202;-64
2022/06/30 03:44:37;;;;;;;11.53;10.53;;;;;;;15.39;100.00;96792.50;5049986;28;20243;-63
2022/06/30 03:47:05;;;;;;;11.70;10.63;;;;;;;15.32;100.00;96789.91;4983968;28;20339;-63
2022/06/30 03:49:34;;;;;;;11.97;10.70;;;;;;;15.30;100.00;96791.97;5035423;28;20242;-64
2022/06/30 03:52:02;;;;;;;11.60;10.43;;;;;;;15.33;100.00;96788.06;5036691;28;21309;-64
2022/06/30 03:54:30;;;;;;;10.73;9.73;;;;;;;15.32;100.00;96794.44;5035568;28;20290;-64
2022/06/30 03:56:59;;;;;;;10.90;9.90;;;;;;;15.39;100.00;96799.69;5032329;28;20650;-63
2022/06/30 03:59:35;;;;;;;12.10;11.00;;;;;;;15.41;100.00;96794.94;5029494;28;20455;-61
2022/06/30 04:02:03;;;;;;;12.23;11.23;;;;;;;15.50;100.00;96788.25;5032837;28;20204;-63
2022/06/30 04:04:32;;;;;;;10.90;9.77;;;;;;;15.54;100.00;96788.63;5032529;28;20201;-63
2022/06/30 04:07:00;;;;;;;13.57;12.33;;;;;;;15.43;100.00;96787.53;5036384;28;20764;-63
2022/06/30 04:09:28;;;;;;;12.13;11.03;;;;;;;15.47;100.00;96783.38;5035765;28;20238;-63
2022/06/30 04:11:56;;;;;;;10.90;10.13;;;;;;;15.41;100.00;96793.09;5031269;28;20204;-62
2022/06/30 04:14:26;;;;;;;12.80;11.60;;;;;;;15.33;100.00;96793.41;5033465;28;20231;-64
2022/06/30 04:16:54;;;;;;;12.83;11.60;;;;;;;15.31;100.00;96796.28;5032470;28;20334;-63
2022/06/30 04:19:22;;;;;;;13.13;11.47;;;;;;;15.40;100.00;96796.78;5034268;28;22263;-63
2022/06/30 04:21:50;;;;;;;12.70;11.53;;;;;;;15.42;100.00;96799.25;5034207;28;20491;-62
2022/06/30 04:24:18;;;;;;;13.53;11.03;;;;;;;15.53;100.00;96801.16;5038336;28;20257;-64
2022/06/30 04:26:46;;;;;;;15.07;11.60;;;;;;;15.69;100.00;96804.22;5036940;28;20223;-62
2022/06/30 04:29:14;;;;;;;12.67;11.53;;;;;;;15.73;100.00;96797.41;5033988;28;20294;-64
2022/06/30 04:34:29;;;;;;;11.80;10.70;;;;;;;16.11;100.00;96806.97;5034353;28;20195;-61
2022/06/30 04:36:57;;;;;;;14.47;13.17;;;;;;;16.26;100.00;96814.53;5035113;28;20307;-64
2022/06/30 04:39:25;;;;;;;14.90;13.50;;;;;;;16.41;100.00;96814.09;5032824;28;20468;-64
2022/06/30 04:41:52;;;;;;;14.30;12.80;;;;;;;16.49;100.00;96826.31;5033691;28;20205;-63
2022/06/30 04:44:20;;;;;;;14.07;12.77;;;;;;;16.51;100.00;96810.06;5043584;28;20549;-65
2022/06/30 04:46:50;;;;;;;14.27;12.97;;;;;;;16.66;100.00;96813.09;5054936;28;20373;-62
2022/06/30 04:49:19;;;;;;;13.80;12.60;;;;;;;16.96;100.00;96812.16;5054605;28;20702;-64
2022/06/30 04:51:47;;;;;;;14.63;13.43;;;;;;;17.11;100.00;96809.03;5051701;28;20330;-62
2022/06/30 04:54:15;;;;;;;14.33;13.00;;;;;;;17.34;100.00;96813.53;5052295;28;20243;-63
2022/06/30 04:56:44;;;;;;;14.13;12.83;;;;;;;17.34;100.00;96807.34;5004497;28;20254;-62
2022/06/30 04:59:12;;;;;;;13.33;12.23;;;;;;;17.70;100.00;96805.34;5054809;28;20692;-63
2022/06/30 05:01:40;;;;;;;13.07;11.93;;;;;;;17.74;100.00;96803.03;5056165;28;20207;-64
2022/06/30 05:04:10;;;;;;;12.63;11.37;;;;;;;17.93;100.00;96791.03;5057297;28;20203;-59
2022/06/30 05:06:38;;;;;;;11.63;10.63;;;;;;;18.04;100.00;96788.59;5055300;28;20227;-64
2022/06/30 05:09:06;;;;;;;12.63;10.80;;;;;;;18.13;100.00;96779.09;5052656;28;20204;-63
2022/06/30 05:11:35;;;;;;;12.00;10.80;;;;;;;18.34;100.00;96780.22;5049834;28;20736;-62
2022/06/30 05:14:03;;;;;;;12.13;11.03;;;;;;;18.31;100.00;96774.53;5055214;28;20248;-63
2022/06/30 05:16:31;;;;;;;10.83;9.93;;;;;;;18.38;100.00;96767.16;5053764;28;20251;-63
2022/06/30 05:18:59;;;;;;;10.83;9.97;;;;;;;18.50;100.00;96767.03;5055095;28;20209;-63
2022/06/30 05:21:29;;;;;;;11.53;10.53;;;;;;;18.37;100.00;96766.34;5051906;28;20276;-64
2022/06/30 05:26:43;;;;;;;10.87;10.07;;;;;;;18.64;100.00;96768.34;5058597;28;20237;-62
2022/06/30 05:29:11;;;;;;;11.13;10.03;;;;;;;18.64;100.00;96765.66;5053232;28;20381;-62
2022/06/30 05:31:40;;;;;;;11.07;10.17;;;;;;;18.87;100.00;96769.19;5051289;28;20262;-60
2022/06/30 05:34:09;;;;;;;10.33;9.33;;;;;;;19.14;100.00;96768.50;5051504;28;22406;-63
2022/06/30 05:36:38;;;;;;;9.87;8.80;;;;;;;19.18;100.00;96768.81;5057158;28;20323;-64
2022/06/30 05:39:06;;;;;;;9.37;8.47;;;;;;;19.24;100.00;96765.13;5053947;28;20203;-63
2022/06/30 05:41:34;;;;;;;9.33;8.60;;;;;;;19.36;100.00;96760.44;5056134;28;20409;-63
2022/06/30 05:44:02;;;;;;;9.03;8.33;;;;;;;19.48;100.00;96756.78;5053003;28;20293;-63
2022/06/30 05:46:30;;;;;;;9.43;8.73;;;;;;;19.64;100.00;96769.34;5036673;28;20307;-64
2022/06/30 05:48:58;;;;;;;8.83;8.17;;;;;;;19.87;100.00;96766.59;5033574;28;20588;-61
2022/06/30 05:51:26;;;;;;;8.63;7.93;;;;;;;20.01;100.00;96762.47;5036711;28;20357;-63
2022/06/30 05:53:56;;;;;;;8.40;7.70;;;;;;;20.08;100.00;96749.63;5035731;28;20208;-62
2022/06/30 05:56:24;;;;;;;7.63;7.07;;;;;;;20.34;100.00;96759.78;5036429;28;20231;-64
2022/06/30 05:58:52;;;;;;;7.93;7.03;;;;;;;20.65;100.00;96747.34;5032932;28;20231;-61
2022/06/30 06:01:20;;;;;;;16.67;15.20;;;;;;;20.58;100.00;96745.94;5036545;28;20719;-64
2022/06/30 06:03:48;;;;;;;11.30;10.03;;;;;;;20.60;100.00;96752.69;5035020;28;20497;-64
2022/06/30 06:06:17;;;;;;;8.43;7.73;;;;;;;20.68;100.00;96754.09;5001238;28;20550;-61
2022/06/30 06:08:45;;;;;;;8.33;7.63;;;;;;;20.81;100.00;96752.84;5029228;28;20290;-64
2022/06/30 06:11:15;;;;;;;7.70;7.13;;;;;;;21.01;100.00;96762.09;5035438;28;20250;-64
2022/06/30 06:13:43;;;;;;;7.87;7.27;;;;;;;20.95;100.00;96764.78;5036201;28;20410;-62
2022/06/30 06:16:11;;;;;;;8.20;7.60;;;;;;;20.89;100.00;96759.63;5032805;28;20804;-61
2022/06/30 06:18:39;;;;;;;8.13;7.33;;;;;;;20.87;100.00;96767.16;5033525;28;20223;-63
2022/06/30 06:21:07;;;;;;;7.57;6.90;;;;;;;20.80;100.00;96767.38;5036456;28;20674;-63
2022/06/30 06:23:50;;;;;;;8.30;7.47;;;;;;;20.72;100.00;96768.66;5036291;28;20229;-62
2022/06/30 06:26:20;;;;;;;7.30;6.67;;;;;;;20.75;100.00;96770.81;5036583;28;20337;-64
2022/06/30 06:29:06;;;;;;;8.13;7.43;;;;;;;20.91;100.00;96768.25;5036984;28;20258;-63
2022/06/30 06:31:37;;;;;;;7.77;7.17;;;;;;;20.69;100.00;96766.50;5034947;28;20323;-61
2022/06/30 06:34:05;;;;;;;8.30;6.00;;;;;;;21.05;100.00;96771.28;5036105;28;20295;-62
2022/06/30 06:36:34;;;;;;;7.03;6.53;;;;;;;21.22;100.00;96773.78;5035839;28;20793;-63
2022/06/30 06:39:02;;;;;;;6.30;5.70;;;;;;;21.31;100.00;96758.72;5035594;28;20231;-64
2022/06/30 06:41:32;;;;;;;7.10;6.50;;;;;;;21.19;100.00;96764.34;5036942;28;20604;-62
2022/06/30 06:44:00;;;;;;;6.70;6.20;;;;;;;21.60;100.00;96770.97;5042030;28;20512;-64
2022/06/30 06:46:28;;;;;;;7.30;6.17;;;;;;;21.72;100.00;96757.25;5059286;28;20610;-61
2022/06/30 06:48:59;;;;;;;5.97;5.33;;;;;;;21.81;100.00;96761.88;5059531;28;20203;-64
2022/06/30 06:51:27;;;;;;;6.00;5.60;;;;;;;21.92;100.00;96757.31;5058817;28;20317;-63
2022/06/30 06:53:56;;;;;;;6.40;5.90;;;;;;;22.11;100.00;96749.50;5061691;28;20261;-63
2022/06/30 06:56:24;;;;;;;6.00;5.50;;;;;;;22.33;100.00;96756.50;5058916;28;20892;-63
2022/06/30 06:59:00;;;;;;;5.67;5.10;;;;;;;22.23;100.00;96765.41;5058113;28;21089;-64
2022/06/30 07:01:29;;;;;;;5.93;5.43;;;;;;;22.26;100.00;96755.97;5057581;28;20295;-64
2022/06/30 07:03:57;;;;;;;5.43;5.00;;;;;;;22.07;100.00;96761.09;5057788;28;20492;-63
2022/06/30 07:06:26;;;;;;;5.53;5.10;;;;;;;22.16;100.00;96756.78;5060452;28;20222;-63
2022/06/30 07:08:53;;;;;;;6.77;6.17;;;;;;;22.44;100.00;96756.50;5057568;28;20318;-63
2022/06/30 07:11:22;;;;;;;16.87;15.37;;;;;;;22.25;100.00;96754.34;5056890;28;20215;-63
2022/06/30 07:13:50;;;;;;;7.33;6.73;;;;;;;22.53;100.00;96749.50;5058155;28;20278;-62
2022/06/30 07:16:19;;;;;;;5.17;4.77;;;;;;;22.79;100.00;96739.44;5057262;28;20220;-63
2022/06/30 07:18:47;;;;;;;6.00;5.37;;;;;;;22.59;100.00;96737.59;5019631;28;20312;-63
2022/06/30 07:21:16;;;;;;;5.50;5.00;;;;;;;22.38;100.00;96742.19;5058889;28;20257;-64
2022/06/30 07:23:44;;;;;;;6.50;5.90;;;;;;;22.61;100.00;96748.94;5058008;28;20886;-59
2022/06/30 07:26:12;;;;;;;6.33;5.83;;;;;;;22.79;100.00;96746.75;5058328;28;20729;-63
2022/06/30 07:28:42;;;;;;;5.53;5.13;;;;;;;22.92;100.00;96743.47;5057820;28;20661;-61
2022/06/30 07:31:23;;;;;;;4.90;4.53;;;;;;;23.27;100.00;96740.94;5060106;28;20286;-63
2022/06/30 07:33:51;;;;;;;6.03;5.50;;;;;;;23.00;100.00;96744.81;5058870;28;20363;-62
2022/06/30 07:36:20;;;;;;;4.63;4.33;;;;;;;22.88;100.00;96744.28;5060351;28;20642;-64
2022/06/30 07:38:49;;;;;;;5.17;4.77;;;;;;;22.80;100.00;96741.06;5058634;28;20743;-64
2022/06/30 07:41:18;;;;;;;4.90;4.60;;;;;;;23.09;100.00;96740.44;5057376;28;20309;-63
2022/06/30 07:43:46;;;;;;;5.20;4.70;;;;;;;23.31;100.00;96742.03;5060484;28;20310;-63
2022/06/30 07:46:15;;;;;;;4.73;4.43;;;;;;;23.38;100.00;96737.13;5052762;28;20599;-61
2022/06/30 07:48:45;;;;;;;6.00;5.47;;;;;;;23.59;100.00;96737.00;5057520;28;20268;-63
2022/06/30 07:51:13;;;;;;;5.40;5.00;;;;;;;23.53;100.00;96730.00;5057916;28;20298;-64
2022/06/30 07:53:41;;;;;;;5.60;5.10;;;;;;;23.46;100.00;96732.22;5055363;28;20322;-64
2022/06/30 07:56:09;;;;;;;8.47;6.37;;;;;;;23.61;100.00;96728.63;5060063;28;20258;-59
2022/06/30 07:58:38;;;;;;;5.57;5.17;;;;;;;23.73;100.00;96720.94;5058462;28;20257;-64
2022/06/30 08:01:06;;;;;;;7.70;5.60;;;;;;;23.99;100.00;96715.38;5055526;28;20284;-64
2022/06/30 08:03:41;;;;;;;5.50;5.00;;;;;;;24.11;100.00;96715.84;5058223;28;20206;-61
2022/06/30 08:06:11;;;;;;;5.80;5.37;;;;;;;23.83;100.00;96717.38;5057062;28;20265;-61
2022/06/30 08:08:39;;;;;;;6.00;5.50;;;;;;;23.60;100.00;96708.06;5056483;28;20318;-63
2022/06/30 08:11:07;;;;;;;5.70;5.30;;;;;;;23.78;100.00;96696.56;5057558;28;20722;-64
2022/06/30 08:13:36;;;;;;;5.87;5.47;;;;;;;23.66;100.00;96701.53;5060558;28;20225;-64
2022/06/30 08:16:05;;;;;;;6.10;5.70;;;;;;;23.76;100.00;96704.16;5056076;28;20791;-64
2022/06/30 08:18:33;;;;;;;6.37;5.83;;;;;;;23.91;100.00;96699.75;5057300;28;20199;-61
2022/06/30 08:21:01;;;;;;;4.97;4.67;;;;;;;23.94;100.00;96704.59;5056489;28;20230;-63
2022/06/30 08:23:30;;;;;;;4.97;4.70;;;;;;;24.30;100.00;96706.22;5053573;28;20278;-61
2022/06/30 08:25:59;;;;;;;6.23;5.63;;;;;;;24.34;100.00;96709.94;5056159;28;20303;-64
2022/06/30 08:28:27;;;;;;;6.40;5.80;;;;;;;24.46;100.00;96712.28;4997728;28;20653;-64
2022/06/30 08:30:55;;;;;;;6.47;5.17;;;;;;;24.37;100.00;96714.78;5053471;28;20272;-64
2022/06/30 08:33:23;;;;;;;5.60;5.13;;;;;;;24.53;100.00;96723.56;5054507;28;20251;-63
2022/06/30 08:35:51;;;;;;;5.83;5.33;;;;;;;24.55;100.00;96713.28;5054917;28;20264;-64
2022/06/30 08:38:29;;;;;;;5.47;5.03;;;;;;;24.73;100.00;96714.44;5050662;28;20664;-63
2022/06/30 08:43:44;;;;;;;5.37;4.93;;;;;;;24.97;100.00;96708.25;5054096;28;20199;-64
2022/06/30 08:46:13;;;;;;;5.17;4.87;;;;;;;24.63;100.00;96703.72;5053346;28;20337;-64
2022/06/30 08:48:41;;;;;;;5.27;4.90;;;;;;;24.97;100.00;96702.84;5056272;28;20206;-64
2022/06/30 08:51:10;;;;;;;5.40;5.00;;;;;;;25.08;100.00;96704.31;5053251;28;20290;-65
2022/06/30 08:53:43;;;;;;;5.90;5.27;;;;;;;24.88;100.00;96691.81;5056202;28;20558;-63
2022/06/30 08:56:12;;;;;;;6.17;5.50;;;;;;;24.84;100.00;96694.31;5054613;28;20284;-62
2022/06/30 08:58:40;;;;;;;5.90;5.50;;;;;;;24.89;100.00;96696.13;5054638;28;20211;-64
2022/06/30 09:01:09;;;;;;;5.03;4.63;;;;;;;24.63;100.00;96696.41;5055608;28;20310;-61
2022/06/30 09:03:38;;;;;;;4.93;4.57;;;;;;;24.66;100.00;96687.72;5055684;28;20597;-64
2022/06/30 09:06:07;;;;;;;5.70;5.20;;;;;;;24.89;100.00;96696.13;5055355;28;20918;-64
2022/06/30 09:08:35;;;;;;;6.23;4.90;;;;;;;24.92;100.00;96694.78;5055870;28;20226;-64
2022/06/30 09:11:05;;;;;;;6.00;5.60;;;;;;;25.05;100.00;96691.34;5052750;28;20663;-64
2022/06/30 09:13:40;;;;;;;5.27;4.87;;;;;;;25.44;100.00;96689.50;5055244;28;20750;-64
2022/06/30 09:16:08;;;;;;;5.53;4.93;;;;;;;25.66;100.00;96686.22;5053787;28;20308;-61
2022/06/30 09:18:37;;;;;;;6.27;5.47;;;;;;;25.58;100.00;96701.25;5056912;28;20207;-64
2022/06/30 09:21:09;;;;;;;6.47;5.40;;;;;;;25.36;100.00;96699.09;5052311;28;20949;-64
2022/06/30 09:23:37;;;;;;;5.93;5.43;;;;;;;25.24;100.00;96696.78;5057834;28;20290;-64
2022/06/30 09:26:08;;;;;;;5.20;4.70;;;;;;;25.23;100.00;96703.31;5055488;28;20230;-64
2022/06/30 09:28:44;;;;;;;6.10;5.70;;;;;;;25.14;100.00;96702.34;5055475;28;20233;-64
2022/06/30 09:31:34;;;;;;;6.17;5.47;;;;;;;25.44;100.00;96700.34;5055337;28;20211;-62
2022/06/30 09:34:16;;;;;;;5.53;5.03;;;;;;;25.94;100.00;96696.38;5054417;28;20264;-62
2022/06/30 09:36:45;;;;;;;7.37;5.23;;;;;;;25.67;100.00;96693.25;5053027;28;20227;-63
2022/06/30 09:39:15;;;;;;;5.57;5.00;;;;;;;25.77;100.00;96694.19;5006936;28;20682;-62
2022/06/30 09:41:47;;;;;;;6.17;5.07;;;;;;;25.85;100.00;96690.81;5053278;28;20864;-62
2022/06/30 09:44:20;;;;;;;5.77;5.27;;;;;;;26.12;100.00;96686.56;5052806;28;20219;-63
2022/06/30 09:46:56;;;;;;;5.07;4.77;;;;;;;26.34;100.00;96685.94;5037974;28;20258;-63
2022/06/30 09:49:31;;;;;;;7.63;7.13;;;;;;;26.71;100.00;96686.13;5038795;28;20290;-63
2022/06/30 09:52:00;;;;;;;6.43;5.83;;;;;;;26.37;100.00;96688.06;5036043;28;20257;-63
2022/06/30 09:54:29;;;;;;;6.37;5.87;;;;;;;26.53;100.00;96687.81;5035924;28;20261;-63
2022/06/30 09:57:06;;;;;;;5.50;5.10;;;;;;;26.21;100.00;96689.47;5039564;28;20807;-62
2022/06/30 09:59:34;;;;;;;5.47;5.13;;;;;;;26.50;100.00;96691.09;5038495;28;20310;-63
2022/06/30 10:02:06;;;;;;;5.70;5.30;;;;;;;26.74;100.00;96685.50;5041883;28;20861;-61
2022/06/30 10:04:52;;;;;;;5.77;5.27;;;;;;;26.67;100.00;96677.75;5040885;28;20377;-61
2022/06/30 10:07:21;;;;;;;6.53;5.83;;;;;;;25.96;100.00;96684.13;5036411;28;20727;-62
2022/06/30 10:09:49;;;;;;;5.80;4.93;;;;;;;25.82;100.00;96675.94;5039480;28;20207;-63
2022/06/30 10:12:20;;;;;;;5.47;4.97;;;;;;;25.98;100.00;96684.63;5032490;28;20314;-63
2022/06/30 10:14:50;;;;;;;6.03;5.40;;;;;;;26.62;100.00;96677.03;5036056;28;20302;-62
2022/06/30 10:17:20;;;;;;;5.57;5.23;;;;;;;26.97;100.00;96672.03;5041197;28;20255;-63
2022/06/30 10:19:48;;;;;;;5.37;4.97;;;;;;;27.19;100.00;96673.22;5039641;28;20231;-64
2022/06/30 10:22:16;;;;;;;5.80;5.40;;;;;;;27.35;100.00;96668.25;5042470;28;20283;-63
2022/06/30 10:24:45;;;;;;;5.57;5.10;;;;;;;26.87;100.00;96665.69;5039753;28;20220;-60
2022/06/30 10:27:14;;;;;;;5.43;4.93;;;;;;;26.76;100.00;96663.44;5045993;28;20242;-63
2022/06/30 10:29:48;;;;;;;6.07;5.20;;;;;;;26.67;100.00;96653.28;5043073;28;20199;-62
2022/06/30 10:32:25;;;;;;;6.20;5.63;;;;;;;26.46;100.00;96657.50;5037193;28;20231;-61
2022/06/30 10:34:58;;;;;;;5.73;5.43;;;;;;;26.86;100.00;96660.56;5041618;28;20692;-62
2022/06/30 10:37:31;;;;;;;6.37;5.93;;;;;;;26.72;100.00;96653.19;5043963;28;20328;-64
2022/06/30 10:40:01;;;;;;;5.77;5.37;;;;;;;26.84;100.00;96649.19;5043163;28;20560;-62
2022/06/30 10:42:43;;;;;;;7.77;4.90;;;;;;;26.51;100.00;96643.81;5043643;28;20691;-63
2022/06/30 10:45:35;;;;;;;6.27;4.97;;;;;;;27.00;100.00;96638.78;5038164;28;20222;-64
2022/06/30 10:48:05;;;;;;;5.33;5.03;;;;;;;27.38;100.00;96641.22;5042614;28;20709;-62
2022/06/30 10:50:36;;;;;;;5.13;4.83;;;;;;;26.99;100.00;96639.91;5005940;28;20631;-64
2022/06/30 10:53:06;;;;;;;5.80;5.30;;;;;;;27.21;100.00;96638.38;5041197;28;20731;-62
2022/06/30 10:55:44;;;;;;;5.80;5.30;;;;;;;27.80;100.00;96632.94;5035843;28;20220;-64
2022/06/30 10:58:13;;;;;;;5.67;5.17;;;;;;;28.17;93.30;96630.13;5042976;28;20261;-64
2022/06/30 11:01:04;;;;;;;5.40;4.90;;;;;;;28.14;88.47;96634.31;5039362;28;20199;-64
2022/06/30 11:04:04;;;;;;;5.47;4.97;;;;;;;28.65;92.38;96634.03;5038289;28;20226;-64
2022/06/30 11:06:59;;;;;;;4.83;4.50;;;;;;;28.30;89.58;96645.59;5037804;28;20224;-63
2022/06/30 11:10:06;;;;;;;5.43;4.33;;;;;;;28.58;89.81;96639.13;5038505;28;20412;-64
2022/06/30 11:13:01;;;;;;;5.00;4.60;;;;;;;28.89;84.61;96638.31;5040951;28;20301;-62
2022/06/30 11:15:57;;;;;;;5.30;4.77;;;;;;;28.60;86.62;96624.09;5021919;28;20328;-64
2022/06/30 11:18:27;;;;;;;5.10;4.80;;;;;;;28.99;90.34;96627.09;5038813;28;20204;-62
2022/06/30 11:20:56;;;;;;;4.67;4.23;;;;;;;28.60;85.24;96621.38;5038167;28;20746;-63
2022/06/30 11:23:24;;;;;;;5.37;4.97;;;;;;;28.73;87.23;96614.16;5037700;28;20235;-64
2022/06/30 11:28:40;;;;;;;8.50;5.63;;;;;;;28.65;88.37;96617.69;5036244;28;20716;-62
2022/06/30 11:31:30;;;;;;;5.37;4.40;;;;;;;29.50;85.04;96609.50;5033081;28;20208;-62
2022/06/30 11:34:02;;;;;;;4.67;4.30;;;;;;;29.28;75.66;96605.78;5034907;28;20459;-64
2022/06/30 11:36:31;;;;;;;4.80;4.43;;;;;;;29.60;72.04;96610.00;5037606;28;20305;-64
2022/06/30 11:39:00;;;;;;;5.30;4.90;;;;;;;29.91;71.27;96602.72;5037144;28;20436;-64
2022/06/30 11:44:16;;;;;;;5.33;4.93;;;;;;;30.16;70.32;96603.78;5036387;28;20289;-63
2022/06/30 11:46:50;;;;;;;5.43;4.40;;;;;;;30.31;64.89;96596.19;5037246;28;20714;-62
2022/06/30 11:49:19;;;;;;;5.73;4.17;;;;;;;30.28;63.87;96589.44;5040659;28;20604;-64
2022/06/30 11:51:49;;;;;;;4.80;4.40;;;;;;;30.83;65.50;96597.09;5035799;28;20236;-62
2022/06/30 11:54:17;;;;;;;4.03;3.73;;;;;;;30.84;56.85;96585.78;5039520;28;20345;-63
2022/06/30 11:56:47;;;;;;;4.23;3.93;;;;;;;30.79;62.71;96594.19;5038202;28;20310;-63